Time;durP1;ratioP1;P1;durP2;ratioP2;P2;SDS_P1;SDS_P2;PMS_P1;PMS_P2;Temp;Humidity;BMP_temperature;BMP_pressure;BME280_temperature;BME280_humidity;BME280_pressure;Samples;Min_cycle;Max_cycle;Signal;HPM_P1;HPM_P2
2021/12/26 00:00:20;;;;;;;30.02;12.35;;;;;;;;;;5049220;28;20399;-44
2021/12/26 00:02:46;;;;;;;38.88;13.77;;;;;;;;;;5049910;28;20029;-45
2021/12/26 00:05:12;;;;;;;30.85;13.10;;;;;;;;;;5049255;28;20017;-44
2021/12/26 00:07:39;;;;;;;44.78;16.48;;;;;;;;;;5048495;28;20031;-45
2021/12/26 00:10:05;;;;;;;35.90;14.02;;;;;;;;;;5049462;28;20025;-44
2021/12/26 00:12:32;;;;;;;44.83;16.15;;;;;;;;;;5045117;28;20584;-44
2021/12/26 00:14:58;;;;;;;40.45;16.88;;;;;;;;;;5046970;28;20013;-44
2021/12/26 00:17:24;;;;;;;44.13;16.33;;;;;;;;;;5049655;28;20017;-44
2021/12/26 00:19:50;;;;;;;42.92;17.00;;;;;;;;;;5051038;28;20055;-44
2021/12/26 00:22:17;;;;;;;36.50;16.05;;;;;;;;;;5055569;28;20502;-44
2021/12/26 00:24:44;;;;;;;50.90;18.13;;;;;;;;;;5050408;28;20064;-44
2021/12/26 00:27:10;;;;;;;51.33;18.67;;;;;;;;;;5055452;28;20027;-44
2021/12/26 00:29:36;;;;;;;46.25;15.90;;;;;;;;;;5053509;28;20033;-44
2021/12/26 00:32:03;;;;;;;43.83;17.10;;;;;;;;;;5053626;28;20480;-44
2021/12/26 00:34:29;;;;;;;54.85;18.42;;;;;;;;;;5054399;28;20025;-44
2021/12/26 00:36:55;;;;;;;50.88;19.58;;;;;;;;;;5050423;28;20021;-45
2021/12/26 00:39:21;;;;;;;44.17;16.52;;;;;;;;;;5048549;28;20024;-44
2021/12/26 00:41:47;;;;;;;45.88;17.48;;;;;;;;;;5054283;28;20697;-44
2021/12/26 00:44:13;;;;;;;43.17;17.40;;;;;;;;;;5055912;28;20075;-44
2021/12/26 00:46:39;;;;;;;42.55;16.55;;;;;;;;;;5059906;28;20041;-44
2021/12/26 00:49:05;;;;;;;43.38;16.58;;;;;;;;;;5053236;28;20232;-44
2021/12/26 00:51:31;;;;;;;39.08;16.52;;;;;;;;;;5055820;28;20021;-44
2021/12/26 00:53:57;;;;;;;39.47;15.02;;;;;;;;;;5054199;28;20070;-44
2021/12/26 00:56:23;;;;;;;38.40;16.20;;;;;;;;;;5052969;28;20116;-45
2021/12/26 00:58:50;;;;;;;37.92;15.80;;;;;;;;;;5055866;28;20498;-44
2021/12/26 01:01:16;;;;;;;35.33;15.77;;;;;;;;;;5066968;28;20043;-44
2021/12/26 01:03:43;;;;;;;37.40;16.00;;;;;;;;;;5071513;28;20479;-44
2021/12/26 01:06:09;;;;;;;36.78;14.98;;;;;;;;;;5072351;28;20028;-44
2021/12/26 01:08:39;;;;;;;28.85;13.18;;;;;;;;;;5045938;28;20080;-44
2021/12/26 01:11:14;;;;;;;35.53;12.77;;;;;;;;;;5051429;28;20039;-43
2021/12/26 01:13:40;;;;;;;27.08;11.40;;;;;;;;;;5054154;28;20516;-43
2021/12/26 01:16:10;;;;;;;35.65;13.18;;;;;;;;;;5072117;28;20045;-44
2021/12/26 01:18:38;;;;;;;36.22;13.65;;;;;;;;;;5051939;28;20029;-43
2021/12/26 01:21:16;;;;;;;43.15;13.52;;;;;;;;;;5051684;28;20442;-44
2021/12/26 01:23:42;;;;;;;31.77;14.73;;;;;;;;;;5038030;28;20044;-44
2021/12/26 01:26:08;;;;;;;40.65;15.65;;;;;;;;;;5054652;28;20048;-43
2021/12/26 01:28:34;;;;;;;44.15;15.63;;;;;;;;;;5060261;28;20447;-43
2021/12/26 01:31:00;;;;;;;40.17;13.95;;;;;;;;;;5071997;28;20507;-43
2021/12/26 01:33:27;;;;;;;46.67;14.68;;;;;;;;;;5055027;28;20075;-44
2021/12/26 01:35:53;;;;;;;31.08;13.30;;;;;;;;;;5051469;28;20079;-45
2021/12/26 01:38:20;;;;;;;40.72;14.55;;;;;;;;;;5049364;28;20052;-44
2021/12/26 01:40:49;;;;;;;46.05;16.42;;;;;;;;;;5059086;28;20035;-44
2021/12/26 01:43:16;;;;;;;39.85;14.02;;;;;;;;;;5068184;28;20392;-44
2021/12/26 01:45:43;;;;;;;37.13;14.18;;;;;;;;;;5059246;28;20444;-44
2021/12/26 01:48:09;;;;;;;28.85;12.88;;;;;;;;;;5035279;28;20048;-44
2021/12/26 01:50:36;;;;;;;27.48;11.20;;;;;;;;;;5035909;28;20029;-45
2021/12/26 01:53:03;;;;;;;34.08;13.23;;;;;;;;;;5050231;28;20056;-44
2021/12/26 01:55:41;;;;;;;31.33;12.57;;;;;;;;;;5051096;28;20044;-43
2021/12/26 01:58:08;;;;;;;31.27;13.50;;;;;;;;;;5038502;28;20033;-45
2021/12/26 02:00:34;;;;;;;31.75;11.90;;;;;;;;;;5037923;28;20021;-43
2021/12/26 02:03:01;;;;;;;30.77;12.52;;;;;;;;;;5041842;28;20057;-43
2021/12/26 02:05:27;;;;;;;36.05;12.05;;;;;;;;;;5036375;28;20025;-44
2021/12/26 02:07:53;;;;;;;36.58;13.23;;;;;;;;;;5053807;28;20033;-44
2021/12/26 02:10:19;;;;;;;26.92;12.32;;;;;;;;;;5054529;28;20020;-43
2021/12/26 02:12:45;;;;;;;31.05;11.68;;;;;;;;;;5057720;28;20401;-44
2021/12/26 02:15:11;;;;;;;34.10;12.95;;;;;;;;;;5051265;28;20021;-44
2021/12/26 02:17:37;;;;;;;33.78;12.45;;;;;;;;;;5039744;28;20064;-43
2021/12/26 02:20:13;;;;;;;26.13;12.32;;;;;;;;;;5065243;28;20021;-43
2021/12/26 02:22:42;;;;;;;27.08;12.38;;;;;;;;;;5051001;28;20099;-43
2021/12/26 02:25:24;;;;;;;28.02;11.60;;;;;;;;;;5060785;28;20025;-43
2021/12/26 02:27:50;;;;;;;30.10;12.07;;;;;;;;;;5056543;28;20467;-44
2021/12/26 02:30:17;;;;;;;35.30;12.90;;;;;;;;;;5050850;28;20052;-43
2021/12/26 02:32:48;;;;;;;31.80;12.20;;;;;;;;;;5049481;28;20033;-43
2021/12/26 02:35:14;;;;;;;29.08;12.02;;;;;;;;;;5055614;28;20017;-43
2021/12/26 02:37:40;;;;;;;28.38;10.48;;;;;;;;;;5048730;28;20085;-44
2021/12/26 02:40:07;;;;;;;28.95;11.70;;;;;;;;;;5064095;28;20035;-44
2021/12/26 02:42:33;;;;;;;28.00;12.55;;;;;;;;;;5029989;28;20033;-43
2021/12/26 02:44:59;;;;;;;30.45;11.02;;;;;;;;;;5041192;28;20120;-43
2021/12/26 02:47:35;;;;;;;29.27;11.52;;;;;;;;;;5049844;28;20056;-43
2021/12/26 02:50:05;;;;;;;26.17;12.27;;;;;;;;;;5049317;28;20033;-44
2021/12/26 02:52:31;;;;;;;27.67;13.02;;;;;;;;;;5055639;28;20025;-44
2021/12/26 02:54:59;;;;;;;24.80;10.65;;;;;;;;;;5048894;28;20113;-43
2021/12/26 02:57:25;;;;;;;25.75;10.95;;;;;;;;;;5051556;28;20032;-44
2021/12/26 02:59:51;;;;;;;25.10;10.25;;;;;;;;;;5050231;28;20033;-44
2021/12/26 03:02:17;;;;;;;30.10;10.63;;;;;;;;;;5061854;28;20040;-43
2021/12/26 03:04:43;;;;;;;26.85;10.80;;;;;;;;;;5061672;28;20028;-44
2021/12/26 03:07:09;;;;;;;37.60;10.65;;;;;;;;;;5049783;28;20360;-43
2021/12/26 03:09:44;;;;;;;28.30;10.27;;;;;;;;;;5051593;28;20029;-43
2021/12/26 03:12:11;;;;;;;29.60;11.32;;;;;;;;;;5049297;28;20060;-44
2021/12/26 03:14:38;;;;;;;24.48;9.82;;;;;;;;;;5042744;28;20459;-44
2021/12/26 03:17:04;;;;;;;30.48;9.88;;;;;;;;;;5033286;28;20488;-43
2021/12/26 03:19:34;;;;;;;29.30;10.57;;;;;;;;;;5048858;28;20484;-43
2021/12/26 03:22:01;;;;;;;23.50;9.43;;;;;;;;;;5059961;28;20033;-43
2021/12/26 03:24:27;;;;;;;24.80;8.95;;;;;;;;;;5049250;28;20049;-44
2021/12/26 03:27:04;;;;;;;24.77;9.57;;;;;;;;;;5048359;28;20268;-44
2021/12/26 03:29:30;;;;;;;18.30;8.43;;;;;;;;;;5049284;28;20051;-45
2021/12/26 03:31:56;;;;;;;25.70;10.43;;;;;;;;;;5060387;28;20028;-44
2021/12/26 03:34:22;;;;;;;23.70;9.18;;;;;;;;;;5050990;28;20022;-43
2021/12/26 03:36:52;;;;;;;21.55;8.60;;;;;;;;;;5058655;28;20021;-43
2021/12/26 03:39:18;;;;;;;24.55;8.50;;;;;;;;;;5049530;28;20029;-44
2021/12/26 03:41:44;;;;;;;18.00;7.70;;;;;;;;;;5050870;28;20397;-44
2021/12/26 03:44:10;;;;;;;17.30;8.00;;;;;;;;;;5057902;28;20446;-44
2021/12/26 03:46:37;;;;;;;17.60;8.32;;;;;;;;;;5051336;28;20036;-42
2021/12/26 03:49:05;;;;;;;20.25;8.05;;;;;;;;;;5047228;28;20360;-43
2021/12/26 03:51:32;;;;;;;24.13;7.75;;;;;;;;;;5045638;28;20037;-43
2021/12/26 03:53:58;;;;;;;16.75;8.63;;;;;;;;;;5050450;28;20375;-43
2021/12/26 03:56:24;;;;;;;22.02;8.10;;;;;;;;;;5053160;28;20029;-44
2021/12/26 03:58:50;;;;;;;25.33;8.20;;;;;;;;;;5051266;28;20314;-44
2021/12/26 04:01:16;;;;;;;24.90;9.32;;;;;;;;;;5051772;28;20029;-44
2021/12/26 04:03:42;;;;;;;25.83;8.63;;;;;;;;;;5036744;28;20060;-44
2021/12/26 04:06:08;;;;;;;16.98;7.78;;;;;;;;;;5052866;28;20025;-44
2021/12/26 04:08:34;;;;;;;24.02;8.20;;;;;;;;;;5051421;28;20039;-44
2021/12/26 04:11:00;;;;;;;23.40;8.35;;;;;;;;;;5051375;28;20039;-42
2021/12/26 04:13:26;;;;;;;21.13;9.88;;;;;;;;;;5052490;28;20448;-43
2021/12/26 04:15:52;;;;;;;16.92;7.65;;;;;;;;;;5051928;28;20484;-44
2021/12/26 04:18:19;;;;;;;19.73;8.27;;;;;;;;;;5054725;28;20032;-43
2021/12/26 04:20:45;;;;;;;25.70;8.98;;;;;;;;;;5050409;28;20086;-44
2021/12/26 04:23:14;;;;;;;18.48;7.20;;;;;;;;;;5053084;28;20032;-44
2021/12/26 04:25:40;;;;;;;14.27;7.88;;;;;;;;;;5050080;28;20033;-43
2021/12/26 04:28:06;;;;;;;16.67;7.68;;;;;;;;;;5052687;28;20490;-43
2021/12/26 04:30:33;;;;;;;21.38;8.85;;;;;;;;;;5055435;28;20352;-44
2021/12/26 04:33:01;;;;;;;18.73;7.68;;;;;;;;;;5057504;28;20059;-44
2021/12/26 04:35:27;;;;;;;18.95;7.45;;;;;;;;;;5032341;28;20043;-44
2021/12/26 04:37:53;;;;;;;23.15;7.07;;;;;;;;;;5053393;28;20491;-44
2021/12/26 04:40:19;;;;;;;18.55;7.13;;;;;;;;;;5051137;28;20048;-43
2021/12/26 04:42:46;;;;;;;15.90;7.20;;;;;;;;;;5054179;28;20060;-44
2021/12/26 04:45:12;;;;;;;16.25;7.10;;;;;;;;;;5050655;28;20032;-43
2021/12/26 04:47:40;;;;;;;25.45;8.02;;;;;;;;;;5052917;28;20025;-43
2021/12/26 04:50:07;;;;;;;21.10;7.43;;;;;;;;;;5053520;28;20033;-45
2021/12/26 04:52:34;;;;;;;16.83;6.57;;;;;;;;;;5037160;28;20017;-44
2021/12/26 04:55:02;;;;;;;22.55;8.30;;;;;;;;;;5050221;28;20483;-44
2021/12/26 04:57:28;;;;;;;20.27;7.95;;;;;;;;;;5054445;28;20371;-43
2021/12/26 04:59:54;;;;;;;14.25;6.88;;;;;;;;;;5052086;28;20542;-43
2021/12/26 05:02:20;;;;;;;15.68;8.20;;;;;;;;;;5051957;28;20021;-45
2021/12/26 05:04:46;;;;;;;16.23;7.22;;;;;;;;;;5050695;28;20059;-43
2021/12/26 05:07:12;;;;;;;19.35;7.30;;;;;;;;;;5054174;28;20024;-43
2021/12/26 05:09:38;;;;;;;23.67;7.90;;;;;;;;;;5049544;28;20033;-42
2021/12/26 05:12:04;;;;;;;16.20;6.95;;;;;;;;;;5054666;28;20028;-44
2021/12/26 05:14:30;;;;;;;20.55;6.45;;;;;;;;;;5054391;28;20110;-43
2021/12/26 05:16:56;;;;;;;16.73;5.80;;;;;;;;;;5054138;28;20429;-43
2021/12/26 05:19:22;;;;;;;16.98;6.95;;;;;;;;;;5052575;28;20104;-44
2021/12/26 05:21:48;;;;;;;19.40;6.47;;;;;;;;;;5051032;28;20029;-43
2021/12/26 05:24:14;;;;;;;16.85;5.65;;;;;;;;;;5053103;28;20375;-43
2021/12/26 05:26:40;;;;;;;17.25;6.38;;;;;;;;;;5051972;28;20112;-44
2021/12/26 05:29:06;;;;;;;15.02;6.68;;;;;;;;;;5053020;28;20025;-43
2021/12/26 05:31:32;;;;;;;15.05;6.88;;;;;;;;;;5054582;28;20365;-44
2021/12/26 05:33:58;;;;;;;14.40;6.10;;;;;;;;;;5055422;28;20021;-43
2021/12/26 05:36:25;;;;;;;16.45;6.50;;;;;;;;;;5051605;28;20025;-44
2021/12/26 05:38:51;;;;;;;15.75;6.38;;;;;;;;;;5048575;28;20032;-43
2021/12/26 05:41:17;;;;;;;15.52;6.80;;;;;;;;;;5048900;28;20021;-43
2021/12/26 05:43:43;;;;;;;12.02;5.85;;;;;;;;;;5049542;28;20017;-43
2021/12/26 05:46:09;;;;;;;14.93;6.88;;;;;;;;;;5053711;28;20429;-43
2021/12/26 05:48:35;;;;;;;14.32;7.65;;;;;;;;;;5051745;28;20045;-41
2021/12/26 05:51:01;;;;;;;12.70;5.75;;;;;;;;;;5050891;28;20388;-42
2021/12/26 05:53:27;;;;;;;16.02;5.72;;;;;;;;;;5051450;28;20328;-42
2021/12/26 05:55:53;;;;;;;14.98;6.93;;;;;;;;;;5049499;28;20024;-42
2021/12/26 05:58:19;;;;;;;12.75;5.90;;;;;;;;;;5051659;28;20024;-42
2021/12/26 06:00:45;;;;;;;12.68;5.85;;;;;;;;;;5050295;28;20527;-43
2021/12/26 06:03:11;;;;;;;14.82;4.70;;;;;;;;;;5052844;28;20184;-42
2021/12/26 06:05:37;;;;;;;16.15;6.18;;;;;;;;;;5050144;28;20468;-42
2021/12/26 06:08:03;;;;;;;16.10;6.10;;;;;;;;;;5051443;28;20484;-44
2021/12/26 06:10:29;;;;;;;13.07;5.55;;;;;;;;;;5051313;28;20052;-42
2021/12/26 06:12:55;;;;;;;14.57;6.38;;;;;;;;;;5054725;28;20067;-42
2021/12/26 06:15:22;;;;;;;13.02;6.00;;;;;;;;;;5049921;28;20104;-42
2021/12/26 06:17:48;;;;;;;13.43;5.43;;;;;;;;;;5051322;28;20050;-42
2021/12/26 06:20:14;;;;;;;12.93;5.00;;;;;;;;;;5050057;28;20108;-41
2021/12/26 06:22:44;;;;;;;10.88;5.40;;;;;;;;;;5052976;28;20360;-42
2021/12/26 06:25:11;;;;;;;14.43;5.72;;;;;;;;;;5051506;28;20032;-42
2021/12/26 06:27:37;;;;;;;12.57;5.30;;;;;;;;;;5055207;28;20088;-43
2021/12/26 06:30:04;;;;;;;14.75;5.55;;;;;;;;;;5051326;28;20032;-42
2021/12/26 06:32:30;;;;;;;12.07;5.25;;;;;;;;;;5050477;28;20057;-42
2021/12/26 06:34:56;;;;;;;11.00;5.43;;;;;;;;;;5031873;28;20060;-41
2021/12/26 06:37:22;;;;;;;9.13;5.43;;;;;;;;;;5050728;28;20029;-42
2021/12/26 06:39:48;;;;;;;10.18;4.72;;;;;;;;;;5052384;28;20112;-41
2021/12/26 06:42:14;;;;;;;11.55;5.25;;;;;;;;;;5055060;28;20095;-42
2021/12/26 06:44:40;;;;;;;8.60;4.13;;;;;;;;;;5058196;28;20120;-42
2021/12/26 06:47:07;;;;;;;16.92;6.75;;;;;;;;;;5057743;28;20472;-42
2021/12/26 06:49:33;;;;;;;9.63;4.35;;;;;;;;;;5051987;28;20024;-42
2021/12/26 06:51:59;;;;;;;7.68;4.57;;;;;;;;;;5056701;28;20028;-42
2021/12/26 06:54:25;;;;;;;16.15;5.35;;;;;;;;;;5052181;28;20028;-42
2021/12/26 06:56:51;;;;;;;9.60;4.93;;;;;;;;;;5052942;28;20092;-42
2021/12/26 06:59:17;;;;;;;14.80;4.93;;;;;;;;;;5052828;28;20020;-42
2021/12/26 07:01:43;;;;;;;10.30;4.97;;;;;;;;;;5060207;28;20040;-42
2021/12/26 07:04:09;;;;;;;9.68;4.53;;;;;;;;;;5055561;28;20029;-42
2021/12/26 07:06:35;;;;;;;11.15;4.75;;;;;;;;;;5058740;28;21920;-43
2021/12/26 07:09:01;;;;;;;9.68;4.40;;;;;;;;;;5058774;23;20034;-35
2021/12/26 07:11:27;;;;;;;8.60;4.43;;;;;;;;;;5024227;28;20024;-34
2021/12/26 07:13:56;;;;;;;9.40;3.85;;;;;;;;;;5024047;28;20021;-35
2021/12/26 07:16:23;;;;;;;9.13;4.78;;;;;;;;;;5021370;28;20036;-36
2021/12/26 07:18:49;;;;;;;13.07;4.50;;;;;;;;;;5023479;28;20020;-35
2021/12/26 07:21:15;;;;;;;11.52;4.60;;;;;;;;;;5019818;28;20033;-35
2021/12/26 07:23:41;;;;;;;11.38;5.07;;;;;;;;;;5020420;28;20145;-36
2021/12/26 07:26:07;;;;;;;9.65;4.90;;;;;;;;;;5021406;28;20084;-36
2021/12/26 07:28:33;;;;;;;7.88;4.78;;;;;;;;;;5021580;28;20052;-36
2021/12/26 07:31:00;;;;;;;12.90;5.15;;;;;;;;;;5026010;28;20052;-36
2021/12/26 07:33:26;;;;;;;16.83;5.28;;;;;;;;;;5028019;28;20030;-37
2021/12/26 07:35:52;;;;;;;14.15;5.38;;;;;;;;;;5024512;28;20017;-35
2021/12/26 07:38:18;;;;;;;15.23;5.13;;;;;;;;;;5029202;28;20033;-35
2021/12/26 07:40:45;;;;;;;14.23;5.50;;;;;;;;;;5027581;28;20456;-36
2021/12/26 07:43:11;;;;;;;9.75;5.13;;;;;;;;;;5022334;28;20057;-36
2021/12/26 07:45:37;;;;;;;11.77;5.05;;;;;;;;;;5025160;28;20017;-35
2021/12/26 07:48:03;;;;;;;15.65;5.82;;;;;;;;;;5024488;28;20018;-34
2021/12/26 07:50:30;;;;;;;18.02;6.40;;;;;;;;;;5023773;28;20064;-35
2021/12/26 07:53:02;;;;;;;12.77;5.03;;;;;;;;;;5024828;28;20025;-36
2021/12/26 07:55:28;;;;;;;14.15;6.03;;;;;;;;;;5026403;28;20156;-35
2021/12/26 07:57:54;;;;;;;12.30;5.82;;;;;;;;;;5042597;28;20104;-36
2021/12/26 08:00:20;;;;;;;14.50;6.03;;;;;;;;;;5034491;28;20423;-37
2021/12/26 08:02:47;;;;;;;15.18;6.93;;;;;;;;;;5028684;28;20422;-36
2021/12/26 08:05:13;;;;;;;14.68;5.60;;;;;;;;;;5030990;28;20533;-36
2021/12/26 08:07:40;;;;;;;20.08;5.80;;;;;;;;;;5029752;28;20025;-35
2021/12/26 08:10:06;;;;;;;14.52;6.70;;;;;;;;;;5029040;28;20025;-35
2021/12/26 08:12:32;;;;;;;13.32;5.85;;;;;;;;;;5041683;28;20032;-35
2021/12/26 08:15:01;;;;;;;12.80;7.40;;;;;;;;;;5033006;28;20052;-36
2021/12/26 08:17:27;;;;;;;14.20;5.75;;;;;;;;;;5028258;28;20024;-35
2021/12/26 08:19:53;;;;;;;16.48;6.55;;;;;;;;;;5027842;28;20022;-36
2021/12/26 08:22:19;;;;;;;13.20;6.50;;;;;;;;;;5028629;28;20421;-37
2021/12/26 08:24:45;;;;;;;15.30;6.07;;;;;;;;;;5027855;28;20082;-35
2021/12/26 08:27:11;;;;;;;11.60;6.15;;;;;;;;;;5028747;28;20104;-35
2021/12/26 08:29:37;;;;;;;13.05;6.28;;;;;;;;;;5025534;28;20037;-36
2021/12/26 08:32:04;;;;;;;16.50;6.85;;;;;;;;;;5027033;28;20022;-35
2021/12/26 08:34:30;;;;;;;14.52;6.28;;;;;;;;;;5028264;28;20404;-34
2021/12/26 08:37:04;;;;;;;19.50;7.28;;;;;;;;;;5033882;28;20026;-34
2021/12/26 08:39:34;;;;;;;18.35;6.00;;;;;;;;;;5029374;28;20026;-36
2021/12/26 08:42:00;;;;;;;14.25;5.82;;;;;;;;;;5031773;28;20807;-35
2021/12/26 08:44:26;;;;;;;14.30;6.35;;;;;;;;;;5032733;28;20026;-38
2021/12/26 08:46:52;;;;;;;13.65;6.78;;;;;;;;;;5032736;28;20473;-35
2021/12/26 08:49:19;;;;;;;21.42;6.68;;;;;;;;;;5032752;28;20037;-36
2021/12/26 08:51:46;;;;;;;10.63;5.43;;;;;;;;;;5032711;28;20021;-35
2021/12/26 08:54:12;;;;;;;13.23;5.75;;;;;;;;;;5032794;28;20056;-36
2021/12/26 08:56:39;;;;;;;15.43;5.88;;;;;;;;;;5032192;28;20108;-36
2021/12/26 08:59:06;;;;;;;12.15;6.03;;;;;;;;;;5032347;28;20050;-35
2021/12/26 09:01:32;;;;;;;21.27;7.55;;;;;;;;;;5032177;28;20467;-35
2021/12/26 09:03:58;;;;;;;12.27;5.90;;;;;;;;;;5033137;28;20048;-35
2021/12/26 09:06:24;;;;;;;11.40;6.05;;;;;;;;;;5033011;28;20021;-35
2021/12/26 09:08:50;;;;;;;12.90;6.07;;;;;;;;;;5032237;28;20111;-35
2021/12/26 09:11:17;;;;;;;11.55;5.32;;;;;;;;;;5031959;28;20491;-35
2021/12/26 09:13:44;;;;;;;15.70;6.20;;;;;;;;;;5033975;28;20040;-35
2021/12/26 09:16:10;;;;;;;14.88;5.57;;;;;;;;;;5033860;28;20022;-35
2021/12/26 09:18:36;;;;;;;13.50;6.20;;;;;;;;;;5032226;28;20103;-35
2021/12/26 09:21:02;;;;;;;12.48;6.32;;;;;;;;;;5032025;28;20075;-35
2021/12/26 09:23:28;;;;;;;12.93;4.88;;;;;;;;;;5037662;28;20032;-35
2021/12/26 09:25:54;;;;;;;9.57;5.00;;;;;;;;;;5033643;28;20041;-35
2021/12/26 09:28:20;;;;;;;15.02;5.45;;;;;;;;;;5029419;28;20029;-37
2021/12/26 09:30:46;;;;;;;8.82;4.25;;;;;;;;;;5030486;28;20053;-34
2021/12/26 09:33:12;;;;;;;14.55;5.15;;;;;;;;;;5012981;28;20064;-37
2021/12/26 09:35:38;;;;;;;9.57;5.38;;;;;;;;;;5028628;28;20511;-37
2021/12/26 09:38:05;;;;;;;13.60;5.35;;;;;;;;;;5031446;28;20030;-37
2021/12/26 09:40:31;;;;;;;8.32;4.18;;;;;;;;;;5031975;28;20025;-35
2021/12/26 09:42:57;;;;;;;6.65;3.55;;;;;;;;;;5029862;28;20068;-33
2021/12/26 09:45:23;;;;;;;8.75;4.38;;;;;;;;;;5031608;28;20053;-35
2021/12/26 09:47:50;;;;;;;9.63;4.15;;;;;;;;;;5031831;28;20029;-35
2021/12/26 09:50:16;;;;;;;13.60;5.03;;;;;;;;;;5038345;28;20030;-34
2021/12/26 09:52:43;;;;;;;8.02;4.25;;;;;;;;;;5031504;28;20688;-34
2021/12/26 09:55:09;;;;;;;9.70;4.28;;;;;;;;;;5030874;28;20017;-36
2021/12/26 09:57:35;;;;;;;8.38;4.22;;;;;;;;;;5032124;28;20029;-35
2021/12/26 10:00:04;;;;;;;13.63;5.00;;;;;;;;;;5034525;28;20021;-37
2021/12/26 10:02:30;;;;;;;11.38;5.10;;;;;;;;;;5030983;28;20656;-38
2021/12/26 10:04:56;;;;;;;8.23;4.03;;;;;;;;;;5034201;28;20033;-37
2021/12/26 10:07:24;;;;;;;5.82;3.13;;;;;;;;;;5036179;28;20037;-37
2021/12/26 10:09:51;;;;;;;7.00;3.40;;;;;;;;;;5039777;28;20357;-37
2021/12/26 10:12:20;;;;;;;9.63;4.30;;;;;;;;;;5031832;28;20033;-38
2021/12/26 10:14:51;;;;;;;15.02;3.53;;;;;;;;;;5031070;28;20025;-36
2021/12/26 10:17:23;;;;;;;6.95;3.05;;;;;;;;;;5030967;28;20069;-37
2021/12/26 10:19:49;;;;;;;6.68;2.85;;;;;;;;;;5038482;28;20026;-35
2021/12/26 10:22:17;;;;;;;5.68;2.92;;;;;;;;;;5030393;28;20108;-36
2021/12/26 10:24:44;;;;;;;4.85;2.92;;;;;;;;;;5034325;28;20032;-35
2021/12/26 10:27:12;;;;;;;6.20;2.70;;;;;;;;;;5034890;28;20064;-35
2021/12/26 10:29:43;;;;;;;7.20;2.88;;;;;;;;;;5034080;28;20422;-36
2021/12/26 10:32:18;;;;;;;11.35;3.38;;;;;;;;;;5029971;28;20032;-37
2021/12/26 10:34:44;;;;;;;;;;;;;;;;;;5029985;28;20021;-35
2021/12/26 10:37:14;;;;;;;8.45;3.33;;;;;;;;;;5030372;28;19916;-35
2021/12/26 10:39:45;;;;;;;9.88;3.53;;;;;;;;;;5029710;28;20041;-37
2021/12/26 10:42:13;;;;;;;5.90;2.60;;;;;;;;;;5029275;28;20037;-37
2021/12/26 10:44:47;;;;;;;8.52;3.65;;;;;;;;;;5028934;28;20033;-37
2021/12/26 10:47:16;;;;;;;10.20;3.45;;;;;;;;;;5030318;28;20028;-37
2021/12/26 10:49:48;;;;;;;5.10;3.17;;;;;;;;;;5030080;28;20539;-35
2021/12/26 10:52:21;;;;;;;8.60;2.97;;;;;;;;;;5032242;28;20029;-38
2021/12/26 10:54:52;;;;;;;5.43;2.67;;;;;;;;;;5028917;28;20637;-38
2021/12/26 10:57:20;;;;;;;7.85;3.15;;;;;;;;;;5029732;28;20059;-38
2021/12/26 10:59:47;;;;;;;5.38;3.00;;;;;;;;;;5029310;28;20021;-34
2021/12/26 11:02:24;;;;;;;5.63;3.10;;;;;;;;;;5031094;28;20032;-35
2021/12/26 11:04:55;;;;;;;5.63;2.78;;;;;;;;;;5028881;28;20079;-35
2021/12/26 11:07:21;;;;;;;7.53;3.28;;;;;;;;;;5023961;28;20110;-36
2021/12/26 11:10:00;;;;;;;8.02;3.50;;;;;;;;;;5028708;28;20368;-35
2021/12/26 11:12:35;;;;;;;10.30;3.72;;;;;;;;;;5027484;28;20032;-36
2021/12/26 11:15:03;;;;;;;;;;;;;;;;;;5028307;28;20107;-34
2021/12/26 11:17:30;;;;;;;10.82;3.70;;;;;;;;;;5029267;28;19912;-36
2021/12/26 11:19:56;;;;;;;9.90;3.72;;;;;;;;;;5027590;28;20065;-35
2021/12/26 11:22:23;;;;;;;5.68;3.38;;;;;;;;;;5027514;28;20463;-34
2021/12/26 11:24:50;;;;;;;6.93;3.33;;;;;;;;;;5011624;28;20033;-34
2021/12/26 11:27:16;;;;;;;6.38;3.00;;;;;;;;;;5026070;28;20033;-36
2021/12/26 11:29:42;;;;;;;6.35;2.83;;;;;;;;;;5011409;28;20099;-35
2021/12/26 11:32:08;;;;;;;4.97;2.45;;;;;;;;;;5025472;28;20113;-35
2021/12/26 11:34:35;;;;;;;7.82;2.95;;;;;;;;;;5030150;28;20049;-35
2021/12/26 11:37:01;;;;;;;6.75;3.40;;;;;;;;;;5029518;28;20025;-37
2021/12/26 11:39:28;;;;;;;9.32;2.95;;;;;;;;;;5028026;28;20037;-36
2021/12/26 11:41:54;;;;;;;5.55;2.45;;;;;;;;;;5027860;28;20048;-36
2021/12/26 11:44:20;;;;;;;9.70;3.33;;;;;;;;;;5027616;28;20029;-35
2021/12/26 11:46:55;;;;;;;7.45;3.45;;;;;;;;;;5027479;28;20087;-35
2021/12/26 11:49:34;;;;;;;6.03;3.35;;;;;;;;;;5029647;28;20615;-36
2021/12/26 11:52:19;;;;;;;9.55;3.53;;;;;;;;;;5027147;28;20492;-36
2021/12/26 11:54:51;;;;;;;10.07;3.28;;;;;;;;;;5031834;28;20056;-34
2021/12/26 11:57:17;;;;;;;6.28;3.03;;;;;;;;;;5030361;28;20057;-36
2021/12/26 12:00:02;;;;;;;7.32;3.45;;;;;;;;;;5029298;28;20088;-36
2021/12/26 12:02:39;;;;;;;10.40;4.00;;;;;;;;;;5028987;28;20033;-35
2021/12/26 12:05:07;;;;;;;7.28;3.70;;;;;;;;;;5028856;28;20021;-35
2021/12/26 12:07:43;;;;;;;7.88;3.85;;;;;;;;;;5031477;28;20056;-35
2021/12/26 12:10:28;;;;;;;8.05;3.05;;;;;;;;;;5030389;28;20409;-35
2021/12/26 12:12:54;;;;;;;7.35;2.72;;;;;;;;;;5027969;28;20566;-35
2021/12/26 12:15:40;;;;;;;4.05;2.72;;;;;;;;;;5030860;28;20045;-37
2021/12/26 12:18:08;;;;;;;7.88;3.05;;;;;;;;;;5013102;28;20056;-36
2021/12/26 12:20:34;;;;;;;5.43;2.97;;;;;;;;;;5033187;28;20024;-36
2021/12/26 12:23:10;;;;;;;10.80;4.25;;;;;;;;;;5034432;28;20074;-35
2021/12/26 12:25:38;;;;;;;16.75;4.03;;;;;;;;;;5031912;28;20106;-35
2021/12/26 12:28:14;;;;;;;11.18;3.47;;;;;;;;;;5030336;28;20033;-36
2021/12/26 12:30:42;;;;;;;7.47;3.22;;;;;;;;;;5027527;28;20143;-36
2021/12/26 12:33:22;;;;;;;8.07;3.75;;;;;;;;;;5033564;28;20057;-39
2021/12/26 12:35:53;;;;;;;9.25;3.45;;;;;;;;;;5034646;28;20136;-36
2021/12/26 12:38:28;;;;;;;8.07;3.95;;;;;;;;;;5033527;28;20099;-36
2021/12/26 12:40:54;;;;;;;6.00;3.10;;;;;;;;;;5033029;28;20022;-35
2021/12/26 12:43:23;;;;;;;12.90;3.97;;;;;;;;;;5033846;28;20025;-35
2021/12/26 12:45:56;;;;;;;4.57;2.45;;;;;;;;;;5034205;28;20028;-36
2021/12/26 12:48:26;;;;;;;6.78;3.65;;;;;;;;;;5033511;28;20021;-36
2021/12/26 12:50:54;;;;;;;6.88;3.35;;;;;;;;;;5032752;28;20029;-40
2021/12/26 12:53:39;;;;;;;9.27;3.00;;;;;;;;;;5034891;28;20461;-38
2021/12/26 12:56:05;;;;;;;8.77;3.17;;;;;;;;;;5032473;28;20629;-36
2021/12/26 12:58:32;;;;;;;8.30;2.47;;;;;;;;;;5025174;28;20022;-38
2021/12/26 13:01:02;;;;;;;8.15;3.22;;;;;;;;;;5029191;28;20345;-38
2021/12/26 13:03:28;;;;;;;10.90;3.28;;;;;;;;;;5031322;28;20037;-37
2021/12/26 13:05:55;;;;;;;9.88;3.30;;;;;;;;;;5037779;28;20028;-40
2021/12/26 13:08:22;;;;;;;4.95;2.45;;;;;;;;;;5034598;28;20060;-37
2021/12/26 13:10:50;;;;;;;5.43;2.47;;;;;;;;;;5035927;28;20403;-37
2021/12/26 13:13:17;;;;;;;6.68;2.60;;;;;;;;;;5030924;28;20114;-38
2021/12/26 13:15:50;;;;;;;4.10;2.38;;;;;;;;;;5031429;28;20025;-36
2021/12/26 13:18:16;;;;;;;4.82;2.65;;;;;;;;;;5032662;28;20013;-35
2021/12/26 13:20:42;;;;;;;6.35;2.70;;;;;;;;;;5031654;28;20152;-36
2021/12/26 13:23:08;;;;;;;8.30;2.92;;;;;;;;;;5032142;28;20081;-38
2021/12/26 13:25:42;;;;;;;5.75;2.30;;;;;;;;;;5031577;28;20455;-35
2021/12/26 13:28:11;;;;;;;10.57;3.20;;;;;;;;;;5030097;28;20476;-35
2021/12/26 13:30:42;;;;;;;5.03;2.03;;;;;;;;;;5032333;28;20065;-34
2021/12/26 13:33:31;;;;;;;8.10;2.97;;;;;;;;;;5029065;28;20109;-36
2021/12/26 13:35:57;;;;;;;6.93;2.83;;;;;;;;;;5029845;28;20024;-35
2021/12/26 13:38:23;;;;;;;8.93;2.88;;;;;;;;;;5030688;28;20029;-35
2021/12/26 13:40:52;;;;;;;6.93;2.75;;;;;;;;;;5030399;28;20029;-36
2021/12/26 13:43:24;;;;;;;5.00;2.38;;;;;;;;;;5029252;28;20033;-34
2021/12/26 13:45:52;;;;;;;8.48;3.22;;;;;;;;;;5041032;28;20060;-36
2021/12/26 13:48:26;;;;;;;8.00;2.47;;;;;;;;;;5030323;28;20029;-35
2021/12/26 13:50:52;;;;;;;13.47;2.63;;;;;;;;;;5031215;28;20025;-36
2021/12/26 13:53:18;;;;;;;4.60;2.60;;;;;;;;;;5031306;28;20515;-36
2021/12/26 13:55:47;;;;;;;6.45;2.78;;;;;;;;;;5031812;28;20024;-36
2021/12/26 13:58:14;;;;;;;5.63;2.45;;;;;;;;;;5031015;28;20049;-35
2021/12/26 14:00:56;;;;;;;7.85;2.50;;;;;;;;;;5030583;28;20048;-35
2021/12/26 14:03:23;;;;;;;7.03;2.95;;;;;;;;;;5030748;28;20025;-34
2021/12/26 14:05:50;;;;;;;5.60;2.50;;;;;;;;;;5031524;28;20477;-36
2021/12/26 14:08:16;;;;;;;6.47;3.00;;;;;;;;;;5030756;28;20025;-35
2021/12/26 14:10:43;;;;;;;8.57;2.90;;;;;;;;;;5030631;28;20040;-35
2021/12/26 14:13:11;;;;;;;6.93;2.60;;;;;;;;;;5031375;28;20025;-38
2021/12/26 14:15:44;;;;;;;7.25;2.92;;;;;;;;;;5029693;28;20022;-36
2021/12/26 14:18:15;;;;;;;6.30;2.90;;;;;;;;;;5030749;28;20381;-35
2021/12/26 14:20:43;;;;;;;5.57;2.85;;;;;;;;;;5030745;28;20029;-39
2021/12/26 14:23:15;;;;;;;6.85;2.83;;;;;;;;;;5031158;28;20060;-35
2021/12/26 14:25:42;;;;;;;6.35;2.67;;;;;;;;;;5030678;28;20029;-38
2021/12/26 14:28:08;;;;;;;7.90;3.80;;;;;;;;;;5029562;28;20656;-36
2021/12/26 14:30:37;;;;;;;8.70;2.53;;;;;;;;;;5031344;28;20049;-40
2021/12/26 14:33:03;;;;;;;5.53;2.25;;;;;;;;;;5030590;28;20029;-35